Terminal Aerodrome Forecast
Issued by NWS El Paso, TX

Home | Current Version | Previous Version | Text Only | Print | Product List | Glossary On
Versions: 1 2 3 4 5 6 7 8 9 10 11 12 13 14 15
000
FTUS44 KEPZ 021100 RRA
TAFELP
TAF
KELP 021157Z 0212/0312 10010KT P6SM VCSH BKN100 OVC250
     FM021800 23012G22KT P6SM VCSH BKN050 OVC100
      TEMPO 0218/0222 24014G24KT 6SM -SHRA BKN030 OVC080
     FM022200 22010KT P6SM -SHRA BKN050 OVC100
      TEMPO 0222/0302 22010KT 3SM -SHRA BKN030 OVC080
     FM030200 22010KT P6SM VCSH BKN050 OVC100=

USA.gov is the U.S. government's official web portal to all federal, state and local government web resources and services.